sensor_id;sensor_type;location;lat;lon;timestamp;temperature;humidity
17154;DHT22;8692;52.164;7.558;2024-03-25T00:00:32;6.20;99.90
17154;DHT22;8692;52.164;7.558;2024-03-25T00:03:00;6.10;99.90
17154;DHT22;8692;52.164;7.558;2024-03-25T00:05:27;6.20;99.90
17154;DHT22;8692;52.164;7.558;2024-03-25T00:07:55;6.20;99.90
17154;DHT22;8692;52.164;7.558;2024-03-25T00:10:21;6.20;99.90
17154;DHT22;8692;52.164;7.558;2024-03-25T00:12:48;6.10;99.90
17154;DHT22;8692;52.164;7.558;2024-03-25T00:15:18;6.10;99.90
17154;DHT22;8692;52.164;7.558;2024-03-25T00:17:46;6.10;99.90
17154;DHT22;8692;52.164;7.558;2024-03-25T00:20:12;6.10;99.90
17154;DHT22;8692;52.164;7.558;2024-03-25T00:22:42;6.10;99.90
17154;DHT22;8692;52.164;7.558;2024-03-25T00:25:08;6.10;99.90
17154;DHT22;8692;52.164;7.558;2024-03-25T00:27:35;6.10;99.90
17154;DHT22;8692;52.164;7.558;2024-03-25T00:30:01;6.10;99.90
17154;DHT22;8692;52.164;7.558;2024-03-25T00:32:29;6.10;99.90
17154;DHT22;8692;52.164;7.558;2024-03-25T00:34:55;6.10;99.90
17154;DHT22;8692;52.164;7.558;2024-03-25T00:37:23;6.10;99.90
17154;DHT22;8692;52.164;7.558;2024-03-25T00:39:51;6.10;99.90
17154;DHT22;8692;52.164;7.558;2024-03-25T00:42:18;6.10;99.90
17154;DHT22;8692;52.164;7.558;2024-03-25T00:44:44;6.00;99.90
17154;DHT22;8692;52.164;7.558;2024-03-25T00:47:11;6.00;99.90
17154;DHT22;8692;52.164;7.558;2024-03-25T00:49:37;6.00;99.90
17154;DHT22;8692;52.164;7.558;2024-03-25T00:52:04;6.00;99.90
17154;DHT22;8692;52.164;7.558;2024-03-25T00:54:30;6.00;99.90
17154;DHT22;8692;52.164;7.558;2024-03-25T00:56:59;5.90;99.90
17154;DHT22;8692;52.164;7.558;2024-03-25T00:59:25;5.90;99.90
17154;DHT22;8692;52.164;7.558;2024-03-25T01:01:52;5.90;99.90
17154;DHT22;8692;52.164;7.558;2024-03-25T01:04:18;5.90;99.90
17154;DHT22;8692;52.164;7.558;2024-03-25T01:06:46;5.90;99.90
17154;DHT22;8692;52.164;7.558;2024-03-25T01:09:12;5.90;99.90
17154;DHT22;8692;52.164;7.558;2024-03-25T01:11:39;5.90;99.90
17154;DHT22;8692;52.164;7.558;2024-03-25T01:14:06;5.80;99.90
17154;DHT22;8692;52.164;7.558;2024-03-25T01:16:33;5.80;99.90
17154;DHT22;8692;52.164;7.558;2024-03-25T01:18:59;5.80;99.90
17154;DHT22;8692;52.164;7.558;2024-03-25T01:21:26;5.80;99.90
17154;DHT22;8692;52.164;7.558;2024-03-25T01:23:52;5.80;99.90
17154;DHT22;8692;52.164;7.558;2024-03-25T01:26:20;5.80;99.90
17154;DHT22;8692;52.164;7.558;2024-03-25T01:28:46;5.80;99.90
17154;DHT22;8692;52.164;7.558;2024-03-25T01:31:14;5.80;99.90
17154;DHT22;8692;52.164;7.558;2024-03-25T01:33:40;5.80;99.90
17154;DHT22;8692;52.164;7.558;2024-03-25T01:36:08;5.80;99.90
17154;DHT22;8692;52.164;7.558;2024-03-25T01:38:34;5.80;99.90
17154;DHT22;8692;52.164;7.558;2024-03-25T01:41:07;5.80;99.90
17154;DHT22;8692;52.164;7.558;2024-03-25T01:43:33;5.80;99.90
17154;DHT22;8692;52.164;7.558;2024-03-25T01:46:00;5.90;99.90
17154;DHT22;8692;52.164;7.558;2024-03-25T01:48:29;5.80;99.90
17154;DHT22;8692;52.164;7.558;2024-03-25T01:50:55;5.80;99.90
17154;DHT22;8692;52.164;7.558;2024-03-25T01:53:23;5.90;99.90
17154;DHT22;8692;52.164;7.558;2024-03-25T01:55:51;5.80;99.90
17154;DHT22;8692;52.164;7.558;2024-03-25T01:58:20;5.80;99.90
17154;DHT22;8692;52.164;7.558;2024-03-25T02:00:47;5.80;99.90
17154;DHT22;8692;52.164;7.558;2024-03-25T02:03:14;5.80;99.90
17154;DHT22;8692;52.164;7.558;2024-03-25T02:05:42;5.80;99.90
17154;DHT22;8692;52.164;7.558;2024-03-25T02:08:09;5.80;99.90
17154;DHT22;8692;52.164;7.558;2024-03-25T02:10:37;5.70;99.90
17154;DHT22;8692;52.164;7.558;2024-03-25T02:13:05;5.70;99.90
17154;DHT22;8692;52.164;7.558;2024-03-25T02:15:32;5.70;99.90
17154;DHT22;8692;52.164;7.558;2024-03-25T02:17:59;5.60;99.90
17154;DHT22;8692;52.164;7.558;2024-03-25T02:20:25;5.60;99.90
17154;DHT22;8692;52.164;7.558;2024-03-25T02:22:54;5.60;99.90
17154;DHT22;8692;52.164;7.558;2024-03-25T02:25:21;5.60;99.90
17154;DHT22;8692;52.164;7.558;2024-03-25T02:27:50;5.60;99.90
17154;DHT22;8692;52.164;7.558;2024-03-25T02:30:16;5.60;99.90
17154;DHT22;8692;52.164;7.558;2024-03-25T02:32:43;5.50;99.90
17154;DHT22;8692;52.164;7.558;2024-03-25T02:35:11;5.50;99.90
17154;DHT22;8692;52.164;7.558;2024-03-25T02:37:39;5.50;99.90
17154;DHT22;8692;52.164;7.558;2024-03-25T02:40:06;5.50;99.90
17154;DHT22;8692;52.164;7.558;2024-03-25T02:42:35;5.50;99.90
17154;DHT22;8692;52.164;7.558;2024-03-25T02:45:04;5.40;99.90
17154;DHT22;8692;52.164;7.558;2024-03-25T02:47:32;5.40;99.90
17154;DHT22;8692;52.164;7.558;2024-03-25T02:49:58;5.40;99.90
17154;DHT22;8692;52.164;7.558;2024-03-25T02:52:25;5.40;99.90
17154;DHT22;8692;52.164;7.558;2024-03-25T02:54:51;5.40;99.90
17154;DHT22;8692;52.164;7.558;2024-03-25T02:57:19;5.40;99.90
17154;DHT22;8692;52.164;7.558;2024-03-25T02:59:46;5.40;99.90
17154;DHT22;8692;52.164;7.558;2024-03-25T03:02:14;5.40;99.90
17154;DHT22;8692;52.164;7.558;2024-03-25T03:04:40;5.40;99.90
17154;DHT22;8692;52.164;7.558;2024-03-25T03:07:07;5.40;99.90
17154;DHT22;8692;52.164;7.558;2024-03-25T03:09:33;5.40;99.90
17154;DHT22;8692;52.164;7.558;2024-03-25T03:12:00;5.40;99.90
17154;DHT22;8692;52.164;7.558;2024-03-25T03:14:26;5.40;99.90
17154;DHT22;8692;52.164;7.558;2024-03-25T03:16:53;5.40;99.90
17154;DHT22;8692;52.164;7.558;2024-03-25T03:19:22;5.40;99.90
17154;DHT22;8692;52.164;7.558;2024-03-25T03:21:49;5.40;99.90
17154;DHT22;8692;52.164;7.558;2024-03-25T03:24:15;5.40;99.90
17154;DHT22;8692;52.164;7.558;2024-03-25T03:26:42;5.40;99.90
17154;DHT22;8692;52.164;7.558;2024-03-25T03:29:08;5.40;99.90
17154;DHT22;8692;52.164;7.558;2024-03-25T03:31:36;5.50;99.90
17154;DHT22;8692;52.164;7.558;2024-03-25T03:34:02;5.40;99.90
17154;DHT22;8692;52.164;7.558;2024-03-25T03:36:31;5.50;99.90
17154;DHT22;8692;52.164;7.558;2024-03-25T03:38:57;5.50;99.90
17154;DHT22;8692;52.164;7.558;2024-03-25T03:41:24;5.50;99.90
17154;DHT22;8692;52.164;7.558;2024-03-25T03:43:50;5.40;99.90
17154;DHT22;8692;52.164;7.558;2024-03-25T03:46:17;5.50;99.90
17154;DHT22;8692;52.164;7.558;2024-03-25T03:48:43;5.50;99.90
17154;DHT22;8692;52.164;7.558;2024-03-25T03:51:10;5.40;99.90
17154;DHT22;8692;52.164;7.558;2024-03-25T03:53:37;5.50;99.90
17154;DHT22;8692;52.164;7.558;2024-03-25T03:56:05;5.40;99.90
17154;DHT22;8692;52.164;7.558;2024-03-25T03:58:31;5.50;99.90
17154;DHT22;8692;52.164;7.558;2024-03-25T04:00:59;5.40;99.90
17154;DHT22;8692;52.164;7.558;2024-03-25T04:03:25;5.50;99.90
17154;DHT22;8692;52.164;7.558;2024-03-25T04:05:53;5.50;99.90
17154;DHT22;8692;52.164;7.558;2024-03-25T04:08:19;5.50;99.90
17154;DHT22;8692;52.164;7.558;2024-03-25T04:10:47;5.40;99.90
17154;DHT22;8692;52.164;7.558;2024-03-25T04:13:13;5.50;99.90
17154;DHT22;8692;52.164;7.558;2024-03-25T04:15:43;5.50;99.90
17154;DHT22;8692;52.164;7.558;2024-03-25T04:18:09;5.50;99.90
17154;DHT22;8692;52.164;7.558;2024-03-25T04:20:37;5.50;99.90
17154;DHT22;8692;52.164;7.558;2024-03-25T04:23:04;5.50;99.90
17154;DHT22;8692;52.164;7.558;2024-03-25T04:25:33;5.50;99.90
17154;DHT22;8692;52.164;7.558;2024-03-25T04:28:00;5.50;99.90
17154;DHT22;8692;52.164;7.558;2024-03-25T04:30:27;5.50;99.90
17154;DHT22;8692;52.164;7.558;2024-03-25T04:32:54;5.50;99.90
17154;DHT22;8692;52.164;7.558;2024-03-25T04:35:20;5.50;99.90
17154;DHT22;8692;52.164;7.558;2024-03-25T04:37:47;5.50;99.90
17154;DHT22;8692;52.164;7.558;2024-03-25T04:40:14;5.50;99.90
17154;DHT22;8692;52.164;7.558;2024-03-25T04:42:40;5.50;99.90
17154;DHT22;8692;52.164;7.558;2024-03-25T04:45:09;5.50;99.90
17154;DHT22;8692;52.164;7.558;2024-03-25T04:47:35;5.50;99.90
17154;DHT22;8692;52.164;7.558;2024-03-25T04:50:01;5.40;99.90
17154;DHT22;8692;52.164;7.558;2024-03-25T04:52:27;5.40;99.90
17154;DHT22;8692;52.164;7.558;2024-03-25T04:54:53;5.40;99.90
17154;DHT22;8692;52.164;7.558;2024-03-25T04:57:19;5.40;99.90
17154;DHT22;8692;52.164;7.558;2024-03-25T04:59:46;5.40;99.90
17154;DHT22;8692;52.164;7.558;2024-03-25T05:02:13;5.40;99.90
17154;DHT22;8692;52.164;7.558;2024-03-25T05:04:40;5.40;99.90
17154;DHT22;8692;52.164;7.558;2024-03-25T05:07:06;5.40;99.90
17154;DHT22;8692;52.164;7.558;2024-03-25T05:09:32;5.40;99.90
17154;DHT22;8692;52.164;7.558;2024-03-25T05:11:58;5.40;99.90
17154;DHT22;8692;52.164;7.558;2024-03-25T05:14:24;5.40;99.90
17154;DHT22;8692;52.164;7.558;2024-03-25T05:16:50;5.40;99.90
17154;DHT22;8692;52.164;7.558;2024-03-25T05:19:18;5.40;99.90
17154;DHT22;8692;52.164;7.558;2024-03-25T05:21:44;5.40;99.90
17154;DHT22;8692;52.164;7.558;2024-03-25T05:24:10;5.40;99.90
17154;DHT22;8692;52.164;7.558;2024-03-25T05:26:36;5.40;99.90
17154;DHT22;8692;52.164;7.558;2024-03-25T05:29:03;5.40;99.90
17154;DHT22;8692;52.164;7.558;2024-03-25T05:31:29;5.40;99.90
17154;DHT22;8692;52.164;7.558;2024-03-25T05:33:55;5.40;99.90
17154;DHT22;8692;52.164;7.558;2024-03-25T05:36:22;5.40;99.90
17154;DHT22;8692;52.164;7.558;2024-03-25T05:38:48;5.40;99.90
17154;DHT22;8692;52.164;7.558;2024-03-25T05:41:15;5.40;99.90
17154;DHT22;8692;52.164;7.558;2024-03-25T05:43:41;5.40;99.90
17154;DHT22;8692;52.164;7.558;2024-03-25T05:46:07;5.40;99.90
17154;DHT22;8692;52.164;7.558;2024-03-25T05:48:33;5.40;99.90
17154;DHT22;8692;52.164;7.558;2024-03-25T05:51:00;5.40;99.90
17154;DHT22;8692;52.164;7.558;2024-03-25T05:53:28;5.40;99.90
17154;DHT22;8692;52.164;7.558;2024-03-25T05:55:55;5.40;99.90
17154;DHT22;8692;52.164;7.558;2024-03-25T05:58:21;5.40;99.90
17154;DHT22;8692;52.164;7.558;2024-03-25T06:00:48;5.40;99.90
17154;DHT22;8692;52.164;7.558;2024-03-25T06:03:15;5.40;99.90
17154;DHT22;8692;52.164;7.558;2024-03-25T06:05:42;5.40;99.90
17154;DHT22;8692;52.164;7.558;2024-03-25T06:08:08;5.40;99.90
17154;DHT22;8692;52.164;7.558;2024-03-25T06:10:39;5.40;99.90
17154;DHT22;8692;52.164;7.558;2024-03-25T06:13:05;5.50;99.90
17154;DHT22;8692;52.164;7.558;2024-03-25T06:15:31;5.50;99.90
17154;DHT22;8692;52.164;7.558;2024-03-25T06:17:57;5.50;99.90
17154;DHT22;8692;52.164;7.558;2024-03-25T06:20:23;5.50;99.90
17154;DHT22;8692;52.164;7.558;2024-03-25T06:22:50;5.60;99.90
17154;DHT22;8692;52.164;7.558;2024-03-25T06:25:16;5.50;99.90
17154;DHT22;8692;52.164;7.558;2024-03-25T06:27:45;5.50;99.90
17154;DHT22;8692;52.164;7.558;2024-03-25T06:30:12;5.60;99.90
17154;DHT22;8692;52.164;7.558;2024-03-25T06:32:55;5.60;99.90
17154;DHT22;8692;52.164;7.558;2024-03-25T06:35:42;5.50;99.90
17154;DHT22;8692;52.164;7.558;2024-03-25T06:38:09;5.60;99.90
17154;DHT22;8692;52.164;7.558;2024-03-25T06:40:37;5.60;99.90
17154;DHT22;8692;52.164;7.558;2024-03-25T06:43:04;5.60;99.90
17154;DHT22;8692;52.164;7.558;2024-03-25T06:45:31;5.60;99.90
17154;DHT22;8692;52.164;7.558;2024-03-25T06:47:57;5.70;99.90
17154;DHT22;8692;52.164;7.558;2024-03-25T06:50:23;5.70;99.90
17154;DHT22;8692;52.164;7.558;2024-03-25T06:52:50;5.70;99.90
17154;DHT22;8692;52.164;7.558;2024-03-25T06:55:16;5.80;99.90
17154;DHT22;8692;52.164;7.558;2024-03-25T06:57:42;5.80;99.90
17154;DHT22;8692;52.164;7.558;2024-03-25T07:00:10;5.80;99.90
17154;DHT22;8692;52.164;7.558;2024-03-25T07:02:37;5.80;99.90
17154;DHT22;8692;52.164;7.558;2024-03-25T07:05:03;5.80;99.90
17154;DHT22;8692;52.164;7.558;2024-03-25T07:07:30;5.90;99.90
17154;DHT22;8692;52.164;7.558;2024-03-25T07:09:56;5.90;99.90
17154;DHT22;8692;52.164;7.558;2024-03-25T07:12:22;5.90;99.90
17154;DHT22;8692;52.164;7.558;2024-03-25T07:14:48;5.90;99.90
17154;DHT22;8692;52.164;7.558;2024-03-25T07:17:17;5.90;99.90
17154;DHT22;8692;52.164;7.558;2024-03-25T07:19:43;6.00;99.90
17154;DHT22;8692;52.164;7.558;2024-03-25T07:22:09;6.00;99.90
17154;DHT22;8692;52.164;7.558;2024-03-25T07:24:35;6.00;99.90
17154;DHT22;8692;52.164;7.558;2024-03-25T07:27:01;6.10;99.90
17154;DHT22;8692;52.164;7.558;2024-03-25T07:29:27;6.10;99.90
17154;DHT22;8692;52.164;7.558;2024-03-25T07:31:53;6.10;99.90
17154;DHT22;8692;52.164;7.558;2024-03-25T07:34:21;6.10;99.90
17154;DHT22;8692;52.164;7.558;2024-03-25T07:36:47;6.10;99.90
17154;DHT22;8692;52.164;7.558;2024-03-25T07:39:14;6.20;99.90
17154;DHT22;8692;52.164;7.558;2024-03-25T07:41:40;6.20;99.90
17154;DHT22;8692;52.164;7.558;2024-03-25T07:44:06;6.20;99.90
17154;DHT22;8692;52.164;7.558;2024-03-25T07:46:32;6.20;99.90
17154;DHT22;8692;52.164;7.558;2024-03-25T07:49:00;6.30;99.90
17154;DHT22;8692;52.164;7.558;2024-03-25T07:51:27;6.30;99.90
17154;DHT22;8692;52.164;7.558;2024-03-25T07:53:53;6.30;99.90
17154;DHT22;8692;52.164;7.558;2024-03-25T07:56:20;6.40;99.90
17154;DHT22;8692;52.164;7.558;2024-03-25T07:58:46;6.40;99.90
17154;DHT22;8692;52.164;7.558;2024-03-25T08:01:12;6.40;99.90
17154;DHT22;8692;52.164;7.558;2024-03-25T08:03:38;6.50;99.90
17154;DHT22;8692;52.164;7.558;2024-03-25T08:06:05;6.50;99.90
17154;DHT22;8692;52.164;7.558;2024-03-25T08:08:32;6.60;99.90
17154;DHT22;8692;52.164;7.558;2024-03-25T08:10:58;6.70;99.90
17154;DHT22;8692;52.164;7.558;2024-03-25T08:13:24;6.80;99.90
17154;DHT22;8692;52.164;7.558;2024-03-25T08:15:51;6.80;99.90
17154;DHT22;8692;52.164;7.558;2024-03-25T08:18:17;6.90;99.90
17154;DHT22;8692;52.164;7.558;2024-03-25T08:20:43;7.00;99.90
17154;DHT22;8692;52.164;7.558;2024-03-25T08:23:09;7.00;99.90
17154;DHT22;8692;52.164;7.558;2024-03-25T08:25:36;7.00;99.90
17154;DHT22;8692;52.164;7.558;2024-03-25T08:28:03;7.10;99.90
17154;DHT22;8692;52.164;7.558;2024-03-25T08:30:30;7.10;99.90
17154;DHT22;8692;52.164;7.558;2024-03-25T08:32:56;7.10;99.90
17154;DHT22;8692;52.164;7.558;2024-03-25T08:35:22;7.20;99.90
17154;DHT22;8692;52.164;7.558;2024-03-25T08:37:48;7.20;99.90
17154;DHT22;8692;52.164;7.558;2024-03-25T08:40:14;7.30;99.90
17154;DHT22;8692;52.164;7.558;2024-03-25T08:42:42;7.40;99.90
17154;DHT22;8692;52.164;7.558;2024-03-25T08:45:08;7.40;99.90
17154;DHT22;8692;52.164;7.558;2024-03-25T08:47:34;7.50;99.90
17154;DHT22;8692;52.164;7.558;2024-03-25T08:50:00;7.60;99.90
17154;DHT22;8692;52.164;7.558;2024-03-25T08:52:27;7.60;99.90
17154;DHT22;8692;52.164;7.558;2024-03-25T08:54:53;7.70;99.90
17154;DHT22;8692;52.164;7.558;2024-03-25T08:57:19;7.70;99.90
17154;DHT22;8692;52.164;7.558;2024-03-25T08:59:46;7.70;99.90
17154;DHT22;8692;52.164;7.558;2024-03-25T09:02:12;7.70;99.90
17154;DHT22;8692;52.164;7.558;2024-03-25T09:04:38;7.80;99.90
17154;DHT22;8692;52.164;7.558;2024-03-25T09:07:05;7.80;99.90
17154;DHT22;8692;52.164;7.558;2024-03-25T09:09:31;7.80;99.90
17154;DHT22;8692;52.164;7.558;2024-03-25T09:12:15;7.90;99.90
17154;DHT22;8692;52.164;7.558;2024-03-25T09:14:41;8.00;99.90
17154;DHT22;8692;52.164;7.558;2024-03-25T09:17:09;8.00;99.90
17154;DHT22;8692;52.164;7.558;2024-03-25T09:19:35;8.10;99.90
17154;DHT22;8692;52.164;7.558;2024-03-25T09:22:01;8.20;99.90
17154;DHT22;8692;52.164;7.558;2024-03-25T09:24:27;8.20;99.90
17154;DHT22;8692;52.164;7.558;2024-03-25T09:26:53;8.30;99.90
17154;DHT22;8692;52.164;7.558;2024-03-25T09:29:19;8.30;99.90
17154;DHT22;8692;52.164;7.558;2024-03-25T09:31:45;8.40;99.90
17154;DHT22;8692;52.164;7.558;2024-03-25T09:34:13;8.50;99.90
17154;DHT22;8692;52.164;7.558;2024-03-25T09:36:39;8.50;99.90
17154;DHT22;8692;52.164;7.558;2024-03-25T09:39:05;8.60;99.90
17154;DHT22;8692;52.164;7.558;2024-03-25T09:41:34;8.60;99.90
17154;DHT22;8692;52.164;7.558;2024-03-25T09:44:01;8.70;99.90
17154;DHT22;8692;52.164;7.558;2024-03-25T09:46:27;8.70;99.90
17154;DHT22;8692;52.164;7.558;2024-03-25T09:48:54;8.70;99.90
17154;DHT22;8692;52.164;7.558;2024-03-25T09:51:22;8.70;99.90
17154;DHT22;8692;52.164;7.558;2024-03-25T09:53:48;8.60;99.90
17154;DHT22;8692;52.164;7.558;2024-03-25T09:56:14;8.70;99.90
17154;DHT22;8692;52.164;7.558;2024-03-25T09:58:44;8.70;99.90
17154;DHT22;8692;52.164;7.558;2024-03-25T10:01:10;8.80;99.90
17154;DHT22;8692;52.164;7.558;2024-03-25T10:03:36;8.90;99.90
17154;DHT22;8692;52.164;7.558;2024-03-25T10:06:03;8.90;99.90
17154;DHT22;8692;52.164;7.558;2024-03-25T10:08:31;9.00;99.90
17154;DHT22;8692;52.164;7.558;2024-03-25T10:10:57;9.10;99.90
17154;DHT22;8692;52.164;7.558;2024-03-25T10:13:23;9.20;99.90
17154;DHT22;8692;52.164;7.558;2024-03-25T10:15:49;9.30;99.90
17154;DHT22;8692;52.164;7.558;2024-03-25T10:18:17;9.40;99.90
17154;DHT22;8692;52.164;7.558;2024-03-25T10:20:48;9.40;99.90
17154;DHT22;8692;52.164;7.558;2024-03-25T10:23:14;9.50;99.90
17154;DHT22;8692;52.164;7.558;2024-03-25T10:25:41;9.40;99.90
17154;DHT22;8692;52.164;7.558;2024-03-25T10:28:08;9.30;99.90
17154;DHT22;8692;52.164;7.558;2024-03-25T10:30:34;9.30;99.90
17154;DHT22;8692;52.164;7.558;2024-03-25T10:33:02;9.40;99.90
17154;DHT22;8692;52.164;7.558;2024-03-25T10:35:29;9.40;99.90
17154;DHT22;8692;52.164;7.558;2024-03-25T10:37:57;9.40;99.90
17154;DHT22;8692;52.164;7.558;2024-03-25T10:40:27;9.40;99.90
17154;DHT22;8692;52.164;7.558;2024-03-25T10:43:00;9.50;99.90
17154;DHT22;8692;52.164;7.558;2024-03-25T10:45:29;9.60;99.90
17154;DHT22;8692;52.164;7.558;2024-03-25T10:47:57;9.60;99.90
17154;DHT22;8692;52.164;7.558;2024-03-25T10:50:28;9.60;99.90
17154;DHT22;8692;52.164;7.558;2024-03-25T10:52:54;9.60;99.90
17154;DHT22;8692;52.164;7.558;2024-03-25T10:55:21;9.60;99.90
17154;DHT22;8692;52.164;7.558;2024-03-25T10:57:48;9.60;99.90
17154;DHT22;8692;52.164;7.558;2024-03-25T11:00:16;9.70;99.90
17154;DHT22;8692;52.164;7.558;2024-03-25T11:02:43;9.70;99.90
17154;DHT22;8692;52.164;7.558;2024-03-25T11:05:09;9.70;99.90
17154;DHT22;8692;52.164;7.558;2024-03-25T11:07:36;9.70;99.90
17154;DHT22;8692;52.164;7.558;2024-03-25T11:10:04;9.70;99.90
17154;DHT22;8692;52.164;7.558;2024-03-25T11:12:36;9.70;99.90
17154;DHT22;8692;52.164;7.558;2024-03-25T11:15:03;9.70;99.90
17154;DHT22;8692;52.164;7.558;2024-03-25T11:17:31;9.70;99.90
17154;DHT22;8692;52.164;7.558;2024-03-25T11:20:11;9.70;99.90
17154;DHT22;8692;52.164;7.558;2024-03-25T11:22:47;9.70;99.90
17154;DHT22;8692;52.164;7.558;2024-03-25T11:25:14;9.70;99.90
17154;DHT22;8692;52.164;7.558;2024-03-25T11:27:43;9.70;99.90
17154;DHT22;8692;52.164;7.558;2024-03-25T11:30:10;9.70;99.90
17154;DHT22;8692;52.164;7.558;2024-03-25T11:32:51;9.80;99.90
17154;DHT22;8692;52.164;7.558;2024-03-25T11:35:17;9.90;99.90
17154;DHT22;8692;52.164;7.558;2024-03-25T11:37:44;10.00;99.90
17154;DHT22;8692;52.164;7.558;2024-03-25T11:40:11;10.00;99.90
17154;DHT22;8692;52.164;7.558;2024-03-25T11:42:38;10.10;99.90
17154;DHT22;8692;52.164;7.558;2024-03-25T11:45:05;10.10;99.90
17154;DHT22;8692;52.164;7.558;2024-03-25T11:47:32;10.10;99.90
17154;DHT22;8692;52.164;7.558;2024-03-25T11:49:59;10.20;99.90
17154;DHT22;8692;52.164;7.558;2024-03-25T11:52:30;10.30;99.90
17154;DHT22;8692;52.164;7.558;2024-03-25T11:54:56;10.30;99.90
17154;DHT22;8692;52.164;7.558;2024-03-25T11:57:22;10.30;99.90
17154;DHT22;8692;52.164;7.558;2024-03-25T11:59:49;10.30;99.90
17154;DHT22;8692;52.164;7.558;2024-03-25T12:02:15;10.40;99.90
17154;DHT22;8692;52.164;7.558;2024-03-25T12:04:45;10.40;99.90
17154;DHT22;8692;52.164;7.558;2024-03-25T12:07:14;10.60;99.90
17154;DHT22;8692;52.164;7.558;2024-03-25T12:09:40;10.70;99.90
17154;DHT22;8692;52.164;7.558;2024-03-25T12:12:25;10.80;99.90
17154;DHT22;8692;52.164;7.558;2024-03-25T12:14:52;10.90;99.90
17154;DHT22;8692;52.164;7.558;2024-03-25T12:17:21;11.00;99.90
17154;DHT22;8692;52.164;7.558;2024-03-25T12:19:58;11.00;99.90
17154;DHT22;8692;52.164;7.558;2024-03-25T12:22:27;11.00;99.90
17154;DHT22;8692;52.164;7.558;2024-03-25T12:24:57;11.00;99.90
17154;DHT22;8692;52.164;7.558;2024-03-25T12:27:24;10.90;99.90
17154;DHT22;8692;52.164;7.558;2024-03-25T12:29:58;11.00;99.90
17154;DHT22;8692;52.164;7.558;2024-03-25T12:32:31;11.00;99.90
17154;DHT22;8692;52.164;7.558;2024-03-25T12:34:58;11.10;99.90
17154;DHT22;8692;52.164;7.558;2024-03-25T12:37:27;11.20;99.90
17154;DHT22;8692;52.164;7.558;2024-03-25T12:39:53;11.40;99.90
17154;DHT22;8692;52.164;7.558;2024-03-25T12:42:19;11.40;99.90
17154;DHT22;8692;52.164;7.558;2024-03-25T12:44:45;11.40;99.90
17154;DHT22;8692;52.164;7.558;2024-03-25T12:47:12;11.50;99.90
17154;DHT22;8692;52.164;7.558;2024-03-25T12:49:38;11.60;99.90
17154;DHT22;8692;52.164;7.558;2024-03-25T12:52:05;11.60;99.90
17154;DHT22;8692;52.164;7.558;2024-03-25T12:54:33;11.70;99.90
17154;DHT22;8692;52.164;7.558;2024-03-25T12:56:59;11.70;99.90
17154;DHT22;8692;52.164;7.558;2024-03-25T12:59:25;11.80;99.90
17154;DHT22;8692;52.164;7.558;2024-03-25T13:01:52;11.90;96.70
17154;DHT22;8692;52.164;7.558;2024-03-25T13:04:18;11.90;99.60
17154;DHT22;8692;52.164;7.558;2024-03-25T13:06:44;12.00;97.60
17154;DHT22;8692;52.164;7.558;2024-03-25T13:09:10;11.90;97.80
17154;DHT22;8692;52.164;7.558;2024-03-25T13:11:38;11.90;96.90
17154;DHT22;8692;52.164;7.558;2024-03-25T13:14:04;11.90;97.90
17154;DHT22;8692;52.164;7.558;2024-03-25T13:16:31;11.90;97.60
17154;DHT22;8692;52.164;7.558;2024-03-25T13:18:57;11.80;98.20
17154;DHT22;8692;52.164;7.558;2024-03-25T13:21:24;11.80;98.90
17154;DHT22;8692;52.164;7.558;2024-03-25T13:23:50;11.90;99.30
17154;DHT22;8692;52.164;7.558;2024-03-25T13:26:16;11.90;98.70
17154;DHT22;8692;52.164;7.558;2024-03-25T13:28:44;12.00;98.70
17154;DHT22;8692;52.164;7.558;2024-03-25T13:31:10;12.10;95.40
17154;DHT22;8692;52.164;7.558;2024-03-25T13:33:36;12.00;95.80
17154;DHT22;8692;52.164;7.558;2024-03-25T13:36:03;12.00;96.80
17154;DHT22;8692;52.164;7.558;2024-03-25T13:38:30;12.00;96.50
17154;DHT22;8692;52.164;7.558;2024-03-25T13:40:56;12.10;98.40
17154;DHT22;8692;52.164;7.558;2024-03-25T13:43:22;12.20;98.00
17154;DHT22;8692;52.164;7.558;2024-03-25T13:45:50;12.30;96.40
17154;DHT22;8692;52.164;7.558;2024-03-25T13:48:16;12.40;96.20
17154;DHT22;8692;52.164;7.558;2024-03-25T13:50:42;12.40;96.10
17154;DHT22;8692;52.164;7.558;2024-03-25T13:53:13;12.50;95.30
17154;DHT22;8692;52.164;7.558;2024-03-25T13:55:40;12.40;94.60
17154;DHT22;8692;52.164;7.558;2024-03-25T13:58:06;12.30;93.40
17154;DHT22;8692;52.164;7.558;2024-03-25T14:00:32;12.20;94.30
17154;DHT22;8692;52.164;7.558;2024-03-25T14:03:00;12.20;95.70
17154;DHT22;8692;52.164;7.558;2024-03-25T14:05:26;12.30;94.70
17154;DHT22;8692;52.164;7.558;2024-03-25T14:07:53;12.30;91.80
17154;DHT22;8692;52.164;7.558;2024-03-25T14:10:20;12.30;92.50
17154;DHT22;8692;52.164;7.558;2024-03-25T14:12:46;12.40;91.30
17154;DHT22;8692;52.164;7.558;2024-03-25T14:15:12;12.50;91.30
17154;DHT22;8692;52.164;7.558;2024-03-25T14:17:38;12.50;91.40
17154;DHT22;8692;52.164;7.558;2024-03-25T14:20:07;12.70;90.60
17154;DHT22;8692;52.164;7.558;2024-03-25T14:22:33;12.80;92.00
17154;DHT22;8692;52.164;7.558;2024-03-25T14:25:00;12.90;88.60
17154;DHT22;8692;52.164;7.558;2024-03-25T14:27:26;13.00;91.00
17154;DHT22;8692;52.164;7.558;2024-03-25T14:29:52;13.10;90.90
17154;DHT22;8692;52.164;7.558;2024-03-25T14:32:19;13.20;90.30
17154;DHT22;8692;52.164;7.558;2024-03-25T14:34:45;13.10;85.00
17154;DHT22;8692;52.164;7.558;2024-03-25T14:37:12;13.20;88.40
17154;DHT22;8692;52.164;7.558;2024-03-25T14:39:39;13.10;84.90
17154;DHT22;8692;52.164;7.558;2024-03-25T14:42:07;13.00;86.10
17154;DHT22;8692;52.164;7.558;2024-03-25T14:44:34;12.90;87.00
17154;DHT22;8692;52.164;7.558;2024-03-25T14:47:01;12.80;87.10
17154;DHT22;8692;52.164;7.558;2024-03-25T14:49:27;12.70;85.50
17154;DHT22;8692;52.164;7.558;2024-03-25T14:51:53;12.60;83.50
17154;DHT22;8692;52.164;7.558;2024-03-25T14:54:20;12.50;85.00
17154;DHT22;8692;52.164;7.558;2024-03-25T14:56:47;12.50;85.10
17154;DHT22;8692;52.164;7.558;2024-03-25T14:59:13;12.40;87.10
17154;DHT22;8692;52.164;7.558;2024-03-25T15:01:40;12.30;85.80
17154;DHT22;8692;52.164;7.558;2024-03-25T15:04:06;12.30;87.10
17154;DHT22;8692;52.164;7.558;2024-03-25T15:06:33;12.10;87.00
17154;DHT22;8692;52.164;7.558;2024-03-25T15:08:59;12.00;85.30
17154;DHT22;8692;52.164;7.558;2024-03-25T15:11:27;12.00;88.20
17154;DHT22;8692;52.164;7.558;2024-03-25T15:13:53;12.10;90.10
17154;DHT22;8692;52.164;7.558;2024-03-25T15:16:20;12.30;88.90
17154;DHT22;8692;52.164;7.558;2024-03-25T15:18:46;12.50;86.50
17154;DHT22;8692;52.164;7.558;2024-03-25T15:21:12;12.60;84.30
17154;DHT22;8692;52.164;7.558;2024-03-25T15:23:38;12.60;83.80
17154;DHT22;8692;52.164;7.558;2024-03-25T15:26:05;12.70;84.70
17154;DHT22;8692;52.164;7.558;2024-03-25T15:28:32;12.80;82.90
17154;DHT22;8692;52.164;7.558;2024-03-25T15:30:58;12.80;82.70
17154;DHT22;8692;52.164;7.558;2024-03-25T15:33:24;12.70;85.50
17154;DHT22;8692;52.164;7.558;2024-03-25T15:35:51;12.70;84.80
17154;DHT22;8692;52.164;7.558;2024-03-25T15:38:17;12.60;83.60
17154;DHT22;8692;52.164;7.558;2024-03-25T15:40:43;12.60;85.40
17154;DHT22;8692;52.164;7.558;2024-03-25T15:43:10;12.60;85.50
17154;DHT22;8692;52.164;7.558;2024-03-25T15:45:38;12.60;84.90
17154;DHT22;8692;52.164;7.558;2024-03-25T15:48:04;12.70;83.30
17154;DHT22;8692;52.164;7.558;2024-03-25T15:50:31;12.70;83.40
17154;DHT22;8692;52.164;7.558;2024-03-25T15:52:57;12.80;83.30
17154;DHT22;8692;52.164;7.558;2024-03-25T15:55:23;12.80;83.10